sensor_id;sensor_type;location;lat;lon;timestamp;temperature;humidity
22706;DHT22;11520;51.198;4.468;2023-03-23T00:02:30;12.90;99.90
22706;DHT22;11520;51.198;4.468;2023-03-23T00:05:01;13.00;99.90
22706;DHT22;11520;51.198;4.468;2023-03-23T00:07:28;13.00;99.90
22706;DHT22;11520;51.198;4.468;2023-03-23T00:09:55;13.10;99.90
22706;DHT22;11520;51.198;4.468;2023-03-23T00:12:26;13.00;99.90
22706;DHT22;11520;51.198;4.468;2023-03-23T00:15:07;13.00;99.90
22706;DHT22;11520;51.198;4.468;2023-03-23T00:17:38;13.00;99.90
22706;DHT22;11520;51.198;4.468;2023-03-23T00:20:07;13.00;99.90
22706;DHT22;11520;51.198;4.468;2023-03-23T00:22:35;13.00;99.90
22706;DHT22;11520;51.198;4.468;2023-03-23T00:25:05;13.00;99.90
22706;DHT22;11520;51.198;4.468;2023-03-23T00:27:31;13.00;99.90
22706;DHT22;11520;51.198;4.468;2023-03-23T00:29:57;13.10;99.90
22706;DHT22;11520;51.198;4.468;2023-03-23T00:32:24;13.10;99.90
22706;DHT22;11520;51.198;4.468;2023-03-23T00:34:54;13.00;99.90
22706;DHT22;11520;51.198;4.468;2023-03-23T00:37:20;13.00;99.90
22706;DHT22;11520;51.198;4.468;2023-03-23T00:39:46;13.00;99.90
22706;DHT22;11520;51.198;4.468;2023-03-23T00:42:16;13.00;99.90
22706;DHT22;11520;51.198;4.468;2023-03-23T00:44:44;13.00;99.90
22706;DHT22;11520;51.198;4.468;2023-03-23T00:47:11;13.00;99.90
22706;DHT22;11520;51.198;4.468;2023-03-23T00:49:37;13.00;99.90
22706;DHT22;11520;51.198;4.468;2023-03-23T00:52:05;13.00;99.90
22706;DHT22;11520;51.198;4.468;2023-03-23T00:54:32;13.00;99.90
22706;DHT22;11520;51.198;4.468;2023-03-23T00:56:58;13.00;99.90
22706;DHT22;11520;51.198;4.468;2023-03-23T00:59:24;13.00;99.90
22706;DHT22;11520;51.198;4.468;2023-03-23T01:01:50;13.00;99.90
22706;DHT22;11520;51.198;4.468;2023-03-23T01:04:18;13.00;99.90
22706;DHT22;11520;51.198;4.468;2023-03-23T01:06:48;13.00;99.90
22706;DHT22;11520;51.198;4.468;2023-03-23T01:09:16;13.00;99.90
22706;DHT22;11520;51.198;4.468;2023-03-23T01:11:43;13.00;99.90
22706;DHT22;11520;51.198;4.468;2023-03-23T01:14:10;13.00;99.90
22706;DHT22;11520;51.198;4.468;2023-03-23T01:16:36;13.00;99.90
22706;DHT22;11520;51.198;4.468;2023-03-23T01:19:02;13.00;99.90
22706;DHT22;11520;51.198;4.468;2023-03-23T01:21:28;13.00;99.90
22706;DHT22;11520;51.198;4.468;2023-03-23T01:23:54;13.00;99.90
22706;DHT22;11520;51.198;4.468;2023-03-23T01:26:25;13.00;99.90
22706;DHT22;11520;51.198;4.468;2023-03-23T01:28:52;13.00;99.90
22706;DHT22;11520;51.198;4.468;2023-03-23T01:31:23;13.00;99.90
22706;DHT22;11520;51.198;4.468;2023-03-23T01:33:50;13.10;99.90
22706;DHT22;11520;51.198;4.468;2023-03-23T01:36:25;13.00;99.90
22706;DHT22;11520;51.198;4.468;2023-03-23T01:39:00;13.10;99.90
22706;DHT22;11520;51.198;4.468;2023-03-23T01:41:28;13.10;99.90
22706;DHT22;11520;51.198;4.468;2023-03-23T01:46:26;13.00;99.90
22706;DHT22;11520;51.198;4.468;2023-03-23T01:48:52;13.10;99.90
22706;DHT22;11520;51.198;4.468;2023-03-23T01:51:19;13.10;99.90
22706;DHT22;11520;51.198;4.468;2023-03-23T01:53:50;13.00;99.90
22706;DHT22;11520;51.198;4.468;2023-03-23T01:56:20;13.10;99.90
22706;DHT22;11520;51.198;4.468;2023-03-23T01:58:52;13.10;99.90
22706;DHT22;11520;51.198;4.468;2023-03-23T02:01:19;13.10;99.90
22706;DHT22;11520;51.198;4.468;2023-03-23T02:03:47;13.10;99.90
22706;DHT22;11520;51.198;4.468;2023-03-23T02:06:14;13.10;99.90
22706;DHT22;11520;51.198;4.468;2023-03-23T02:08:41;13.10;99.90
22706;DHT22;11520;51.198;4.468;2023-03-23T02:11:20;13.10;99.90
22706;DHT22;11520;51.198;4.468;2023-03-23T02:13:47;13.10;99.90
22706;DHT22;11520;51.198;4.468;2023-03-23T02:16:34;13.10;99.90
22706;DHT22;11520;51.198;4.468;2023-03-23T02:24:18;13.00;99.90
22706;DHT22;11520;51.198;4.468;2023-03-23T02:30:13;13.00;99.90
22706;DHT22;11520;51.198;4.468;2023-03-23T02:35:56;13.00;99.90
22706;DHT22;11520;51.198;4.468;2023-03-23T02:38:30;13.00;99.90
22706;DHT22;11520;51.198;4.468;2023-03-23T02:41:11;13.00;99.90
22706;DHT22;11520;51.198;4.468;2023-03-23T02:43:43;13.00;99.90
22706;DHT22;11520;51.198;4.468;2023-03-23T02:46:11;13.00;99.90
22706;DHT22;11520;51.198;4.468;2023-03-23T02:48:39;13.00;99.90
22706;DHT22;11520;51.198;4.468;2023-03-23T02:51:07;12.90;99.90
22706;DHT22;11520;51.198;4.468;2023-03-23T02:53:36;12.90;99.90
22706;DHT22;11520;51.198;4.468;2023-03-23T02:56:04;12.90;99.90
22706;DHT22;11520;51.198;4.468;2023-03-23T02:58:33;12.90;99.90
22706;DHT22;11520;51.198;4.468;2023-03-23T03:00:59;12.90;99.90
22706;DHT22;11520;51.198;4.468;2023-03-23T03:03:28;12.90;99.90
22706;DHT22;11520;51.198;4.468;2023-03-23T03:08:53;12.90;99.90
22706;DHT22;11520;51.198;4.468;2023-03-23T03:11:21;12.90;99.90
22706;DHT22;11520;51.198;4.468;2023-03-23T03:14:40;12.90;99.90
22706;DHT22;11520;51.198;4.468;2023-03-23T03:17:03;12.80;99.90
22706;DHT22;11520;51.198;4.468;2023-03-23T03:19:38;12.80;99.90
22706;DHT22;11520;51.198;4.468;2023-03-23T03:22:06;12.80;99.90
22706;DHT22;11520;51.198;4.468;2023-03-23T03:24:36;12.90;99.90
22706;DHT22;11520;51.198;4.468;2023-03-23T03:27:05;12.80;99.90
22706;DHT22;11520;51.198;4.468;2023-03-23T03:29:37;12.90;99.90
22706;DHT22;11520;51.198;4.468;2023-03-23T03:32:12;12.80;99.90
22706;DHT22;11520;51.198;4.468;2023-03-23T03:34:40;12.90;99.90
22706;DHT22;11520;51.198;4.468;2023-03-23T03:37:06;12.90;99.90
22706;DHT22;11520;51.198;4.468;2023-03-23T03:39:36;12.90;99.90
22706;DHT22;11520;51.198;4.468;2023-03-23T03:42:03;12.90;99.90
22706;DHT22;11520;51.198;4.468;2023-03-23T03:44:29;12.90;99.90
22706;DHT22;11520;51.198;4.468;2023-03-23T03:46:56;12.90;99.90
22706;DHT22;11520;51.198;4.468;2023-03-23T03:49:22;12.90;99.90
22706;DHT22;11520;51.198;4.468;2023-03-23T03:51:48;12.90;99.90
22706;DHT22;11520;51.198;4.468;2023-03-23T03:54:14;12.90;99.90
22706;DHT22;11520;51.198;4.468;2023-03-23T03:56:42;12.90;99.90
22706;DHT22;11520;51.198;4.468;2023-03-23T03:59:09;12.90;99.90
22706;DHT22;11520;51.198;4.468;2023-03-23T04:01:37;12.90;99.90
22706;DHT22;11520;51.198;4.468;2023-03-23T04:04:04;12.90;99.90
22706;DHT22;11520;51.198;4.468;2023-03-23T04:06:33;12.90;99.90
22706;DHT22;11520;51.198;4.468;2023-03-23T04:09:02;12.90;99.90
22706;DHT22;11520;51.198;4.468;2023-03-23T04:11:31;12.90;99.90
22706;DHT22;11520;51.198;4.468;2023-03-23T04:13:56;12.90;99.90
22706;DHT22;11520;51.198;4.468;2023-03-23T04:16:23;12.90;99.90
22706;DHT22;11520;51.198;4.468;2023-03-23T04:18:49;12.90;99.90
22706;DHT22;11520;51.198;4.468;2023-03-23T04:21:15;12.90;99.90
22706;DHT22;11520;51.198;4.468;2023-03-23T04:23:42;12.90;99.90
22706;DHT22;11520;51.198;4.468;2023-03-23T04:26:08;12.90;99.90
22706;DHT22;11520;51.198;4.468;2023-03-23T04:28:33;12.80;99.90
22706;DHT22;11520;51.198;4.468;2023-03-23T04:31:00;12.80;99.90
22706;DHT22;11520;51.198;4.468;2023-03-23T04:33:28;12.80;99.90
22706;DHT22;11520;51.198;4.468;2023-03-23T04:35:55;12.70;99.90
22706;DHT22;11520;51.198;4.468;2023-03-23T04:38:23;12.80;99.90
22706;DHT22;11520;51.198;4.468;2023-03-23T04:40:51;12.70;99.90
22706;DHT22;11520;51.198;4.468;2023-03-23T04:43:18;12.60;99.90
22706;DHT22;11520;51.198;4.468;2023-03-23T04:45:57;12.60;99.90
22706;DHT22;11520;51.198;4.468;2023-03-23T04:48:24;12.60;99.90
22706;DHT22;11520;51.198;4.468;2023-03-23T04:50:51;12.60;99.90
22706;DHT22;11520;51.198;4.468;2023-03-23T04:53:17;12.60;99.90
22706;DHT22;11520;51.198;4.468;2023-03-23T04:55:43;12.60;99.90
22706;DHT22;11520;51.198;4.468;2023-03-23T04:58:09;12.50;99.90
22706;DHT22;11520;51.198;4.468;2023-03-23T05:00:37;12.50;99.90
22706;DHT22;11520;51.198;4.468;2023-03-23T05:03:03;12.50;99.90
22706;DHT22;11520;51.198;4.468;2023-03-23T05:05:29;12.50;99.90
22706;DHT22;11520;51.198;4.468;2023-03-23T05:08:18;12.50;99.90
22706;DHT22;11520;51.198;4.468;2023-03-23T05:11:05;12.50;99.90
22706;DHT22;11520;51.198;4.468;2023-03-23T05:13:33;12.60;99.90
22706;DHT22;11520;51.198;4.468;2023-03-23T05:16:03;12.60;99.90
22706;DHT22;11520;51.198;4.468;2023-03-23T05:18:30;12.60;99.90
22706;DHT22;11520;51.198;4.468;2023-03-23T05:21:00;12.60;99.90
22706;DHT22;11520;51.198;4.468;2023-03-23T05:23:26;12.50;99.90
22706;DHT22;11520;51.198;4.468;2023-03-23T05:25:56;12.50;99.90
22706;DHT22;11520;51.198;4.468;2023-03-23T05:28:27;12.50;99.90
22706;DHT22;11520;51.198;4.468;2023-03-23T05:30:53;12.50;99.90
22706;DHT22;11520;51.198;4.468;2023-03-23T05:33:19;12.50;99.90
22706;DHT22;11520;51.198;4.468;2023-03-23T05:35:46;12.60;99.90
22706;DHT22;11520;51.198;4.468;2023-03-23T05:38:13;12.50;99.90
22706;DHT22;11520;51.198;4.468;2023-03-23T05:40:40;12.60;99.90
22706;DHT22;11520;51.198;4.468;2023-03-23T05:43:07;12.50;99.90
22706;DHT22;11520;51.198;4.468;2023-03-23T05:45:33;12.50;99.90
22706;DHT22;11520;51.198;4.468;2023-03-23T05:47:59;12.60;99.90
22706;DHT22;11520;51.198;4.468;2023-03-23T05:50:25;12.60;99.90
22706;DHT22;11520;51.198;4.468;2023-03-23T05:52:51;12.60;99.90
22706;DHT22;11520;51.198;4.468;2023-03-23T05:55:17;12.60;99.90
22706;DHT22;11520;51.198;4.468;2023-03-23T05:57:45;12.50;99.90
22706;DHT22;11520;51.198;4.468;2023-03-23T06:00:11;12.50;99.90
22706;DHT22;11520;51.198;4.468;2023-03-23T06:02:40;12.40;99.90
22706;DHT22;11520;51.198;4.468;2023-03-23T06:05:10;12.40;99.90
22706;DHT22;11520;51.198;4.468;2023-03-23T06:07:39;12.30;99.90
22706;DHT22;11520;51.198;4.468;2023-03-23T06:10:06;12.20;99.90
22706;DHT22;11520;51.198;4.468;2023-03-23T06:12:32;12.10;99.90
22706;DHT22;11520;51.198;4.468;2023-03-23T06:14:58;12.10;99.90
22706;DHT22;11520;51.198;4.468;2023-03-23T06:17:24;12.10;99.90
22706;DHT22;11520;51.198;4.468;2023-03-23T06:19:50;12.00;99.90
22706;DHT22;11520;51.198;4.468;2023-03-23T06:22:17;12.10;99.90
22706;DHT22;11520;51.198;4.468;2023-03-23T06:24:43;12.00;99.90
22706;DHT22;11520;51.198;4.468;2023-03-23T06:27:09;12.10;99.90
22706;DHT22;11520;51.198;4.468;2023-03-23T06:29:35;12.10;99.90
22706;DHT22;11520;51.198;4.468;2023-03-23T06:32:04;12.10;99.90
22706;DHT22;11520;51.198;4.468;2023-03-23T06:34:30;12.30;99.90
22706;DHT22;11520;51.198;4.468;2023-03-23T06:36:58;12.40;99.90
22706;DHT22;11520;51.198;4.468;2023-03-23T06:39:24;12.30;99.90
22706;DHT22;11520;51.198;4.468;2023-03-23T06:41:50;12.20;99.90
22706;DHT22;11520;51.198;4.468;2023-03-23T06:44:15;12.10;99.90
22706;DHT22;11520;51.198;4.468;2023-03-23T06:46:42;11.90;99.90
22706;DHT22;11520;51.198;4.468;2023-03-23T06:49:08;11.80;99.90
22706;DHT22;11520;51.198;4.468;2023-03-23T06:51:36;11.60;99.90
22706;DHT22;11520;51.198;4.468;2023-03-23T06:54:03;11.70;99.90
22706;DHT22;11520;51.198;4.468;2023-03-23T06:56:29;11.50;99.90
22706;DHT22;11520;51.198;4.468;2023-03-23T06:58:55;11.50;99.90
22706;DHT22;11520;51.198;4.468;2023-03-23T07:01:21;11.50;99.90
22706;DHT22;11520;51.198;4.468;2023-03-23T07:03:47;11.50;99.90
22706;DHT22;11520;51.198;4.468;2023-03-23T07:06:14;11.40;99.90
22706;DHT22;11520;51.198;4.468;2023-03-23T07:08:42;11.40;99.90
22706;DHT22;11520;51.198;4.468;2023-03-23T07:11:08;11.50;99.90
22706;DHT22;11520;51.198;4.468;2023-03-23T07:13:35;11.50;99.90
22706;DHT22;11520;51.198;4.468;2023-03-23T07:16:01;11.40;99.90
22706;DHT22;11520;51.198;4.468;2023-03-23T07:18:27;11.30;99.90
22706;DHT22;11520;51.198;4.468;2023-03-23T07:20:54;11.40;99.90
22706;DHT22;11520;51.198;4.468;2023-03-23T07:23:19;11.40;99.90
22706;DHT22;11520;51.198;4.468;2023-03-23T07:25:46;11.30;99.90
22706;DHT22;11520;51.198;4.468;2023-03-23T07:28:14;11.30;99.90
22706;DHT22;11520;51.198;4.468;2023-03-23T07:30:40;11.30;99.90
22706;DHT22;11520;51.198;4.468;2023-03-23T07:33:07;11.30;99.90
22706;DHT22;11520;51.198;4.468;2023-03-23T07:35:33;11.20;99.90
22706;DHT22;11520;51.198;4.468;2023-03-23T07:37:59;11.10;99.90
22706;DHT22;11520;51.198;4.468;2023-03-23T07:40:25;11.10;99.90
22706;DHT22;11520;51.198;4.468;2023-03-23T07:42:53;11.00;99.90
22706;DHT22;11520;51.198;4.468;2023-03-23T07:45:21;11.00;99.90
22706;DHT22;11520;51.198;4.468;2023-03-23T07:47:47;11.00;99.90
22706;DHT22;11520;51.198;4.468;2023-03-23T07:50:13;11.00;99.90
22706;DHT22;11520;51.198;4.468;2023-03-23T07:52:39;11.00;99.90
22706;DHT22;11520;51.198;4.468;2023-03-23T07:55:08;11.00;99.90
22706;DHT22;11520;51.198;4.468;2023-03-23T07:57:34;11.10;99.90
22706;DHT22;11520;51.198;4.468;2023-03-23T08:00:00;11.20;99.90
22706;DHT22;11520;51.198;4.468;2023-03-23T08:02:26;11.20;99.90
22706;DHT22;11520;51.198;4.468;2023-03-23T08:04:52;11.20;99.90
22706;DHT22;11520;51.198;4.468;2023-03-23T08:07:19;11.20;99.90
22706;DHT22;11520;51.198;4.468;2023-03-23T08:09:46;11.30;99.90
22706;DHT22;11520;51.198;4.468;2023-03-23T08:12:13;11.40;99.90
22706;DHT22;11520;51.198;4.468;2023-03-23T08:14:38;11.50;99.90
22706;DHT22;11520;51.198;4.468;2023-03-23T08:17:05;11.60;99.90
22706;DHT22;11520;51.198;4.468;2023-03-23T08:19:31;11.80;99.90
22706;DHT22;11520;51.198;4.468;2023-03-23T08:22:03;11.90;99.90
22706;DHT22;11520;51.198;4.468;2023-03-23T08:24:30;12.20;99.90
22706;DHT22;11520;51.198;4.468;2023-03-23T08:26:58;12.60;99.90
22706;DHT22;11520;51.198;4.468;2023-03-23T08:29:24;12.70;99.90
22706;DHT22;11520;51.198;4.468;2023-03-23T08:31:50;12.90;99.90
22706;DHT22;11520;51.198;4.468;2023-03-23T08:34:16;12.90;99.90
22706;DHT22;11520;51.198;4.468;2023-03-23T08:36:41;12.90;99.90
22706;DHT22;11520;51.198;4.468;2023-03-23T08:39:09;13.00;99.90
22706;DHT22;11520;51.198;4.468;2023-03-23T08:41:35;12.90;99.90
22706;DHT22;11520;51.198;4.468;2023-03-23T08:44:01;13.10;99.90
22706;DHT22;11520;51.198;4.468;2023-03-23T08:46:27;13.30;99.90
22706;DHT22;11520;51.198;4.468;2023-03-23T08:48:54;14.00;99.90
22706;DHT22;11520;51.198;4.468;2023-03-23T08:51:20;14.60;99.90
22706;DHT22;11520;51.198;4.468;2023-03-23T08:53:45;15.60;99.90
22706;DHT22;11520;51.198;4.468;2023-03-23T08:56:12;16.70;99.90
22706;DHT22;11520;51.198;4.468;2023-03-23T08:58:39;17.50;99.90
22706;DHT22;11520;51.198;4.468;2023-03-23T09:01:06;17.80;99.90
22706;DHT22;11520;51.198;4.468;2023-03-23T09:03:34;18.10;99.90
22706;DHT22;11520;51.198;4.468;2023-03-23T09:06:05;18.70;99.90
22706;DHT22;11520;51.198;4.468;2023-03-23T09:08:32;18.60;99.90
22706;DHT22;11520;51.198;4.468;2023-03-23T09:11:06;18.70;99.90
22706;DHT22;11520;51.198;4.468;2023-03-23T09:13:33;19.30;99.90
22706;DHT22;11520;51.198;4.468;2023-03-23T09:15:59;19.60;99.90
22706;DHT22;11520;51.198;4.468;2023-03-23T09:18:26;20.20;99.90
22706;DHT22;11520;51.198;4.468;2023-03-23T09:20:53;20.60;99.90
22706;DHT22;11520;51.198;4.468;2023-03-23T09:23:19;20.10;99.90
22706;DHT22;11520;51.198;4.468;2023-03-23T09:25:46;20.00;99.90
22706;DHT22;11520;51.198;4.468;2023-03-23T09:28:13;21.30;99.90
22706;DHT22;11520;51.198;4.468;2023-03-23T09:30:41;21.00;99.90
22706;DHT22;11520;51.198;4.468;2023-03-23T09:33:08;21.60;99.90
22706;DHT22;11520;51.198;4.468;2023-03-23T09:35:35;22.20;99.90
22706;DHT22;11520;51.198;4.468;2023-03-23T09:38:05;22.30;99.90
22706;DHT22;11520;51.198;4.468;2023-03-23T09:40:48;21.70;99.90
22706;DHT22;11520;51.198;4.468;2023-03-23T09:53:54;22.30;99.90
22706;DHT22;11520;51.198;4.468;2023-03-23T09:56:21;23.30;99.90
22706;DHT22;11520;51.198;4.468;2023-03-23T10:01:51;26.30;93.30
22706;DHT22;11520;51.198;4.468;2023-03-23T10:04:43;25.60;88.80
22706;DHT22;11520;51.198;4.468;2023-03-23T10:07:15;25.10;91.10
22706;DHT22;11520;51.198;4.468;2023-03-23T10:09:43;23.70;93.20
22706;DHT22;11520;51.198;4.468;2023-03-23T10:12:27;22.60;96.40
22706;DHT22;11520;51.198;4.468;2023-03-23T10:22:59;20.80;99.90
22706;DHT22;11520;51.198;4.468;2023-03-23T10:25:30;19.90;99.90
22706;DHT22;11520;51.198;4.468;2023-03-23T10:28:17;19.40;99.90
22706;DHT22;11520;51.198;4.468;2023-03-23T10:30:48;19.10;99.90
22706;DHT22;11520;51.198;4.468;2023-03-23T10:38:52;18.40;99.90
22706;DHT22;11520;51.198;4.468;2023-03-23T10:41:20;18.40;99.90
22706;DHT22;11520;51.198;4.468;2023-03-23T10:43:46;18.20;99.90
22706;DHT22;11520;51.198;4.468;2023-03-23T10:46:27;17.80;99.90
22706;DHT22;11520;51.198;4.468;2023-03-23T10:48:57;17.50;99.90
22706;DHT22;11520;51.198;4.468;2023-03-23T10:51:30;17.10;99.90
22706;DHT22;11520;51.198;4.468;2023-03-23T10:54:00;17.00;99.90
22706;DHT22;11520;51.198;4.468;2023-03-23T10:56:35;16.90;99.90
22706;DHT22;11520;51.198;4.468;2023-03-23T10:59:25;16.90;99.90
22706;DHT22;11520;51.198;4.468;2023-03-23T11:01:56;16.70;99.90
22706;DHT22;11520;51.198;4.468;2023-03-23T11:04:25;16.90;99.90
22706;DHT22;11520;51.198;4.468;2023-03-23T11:06:53;17.00;99.90
22706;DHT22;11520;51.198;4.468;2023-03-23T11:09:34;17.00;99.90
22706;DHT22;11520;51.198;4.468;2023-03-23T11:12:00;17.20;99.90
22706;DHT22;11520;51.198;4.468;2023-03-23T11:14:33;17.20;99.90
22706;DHT22;11520;51.198;4.468;2023-03-23T11:17:05;17.40;99.90
22706;DHT22;11520;51.198;4.468;2023-03-23T11:19:35;17.10;99.90
22706;DHT22;11520;51.198;4.468;2023-03-23T11:24:41;17.10;99.90
22706;DHT22;11520;51.198;4.468;2023-03-23T11:27:08;17.00;99.90
22706;DHT22;11520;51.198;4.468;2023-03-23T11:29:37;17.00;99.90
22706;DHT22;11520;51.198;4.468;2023-03-23T11:32:11;17.10;99.90
22706;DHT22;11520;51.198;4.468;2023-03-23T11:34:46;17.10;99.90
22706;DHT22;11520;51.198;4.468;2023-03-23T11:37:32;17.30;99.90
22706;DHT22;11520;51.198;4.468;2023-03-23T11:40:00;18.10;99.90
22706;DHT22;11520;51.198;4.468;2023-03-23T11:45:21;19.40;99.90
22706;DHT22;11520;51.198;4.468;2023-03-23T11:50:32;20.00;99.90
22706;DHT22;11520;51.198;4.468;2023-03-23T11:53:29;20.20;99.90
22706;DHT22;11520;51.198;4.468;2023-03-23T11:56:24;19.90;99.90
22706;DHT22;11520;51.198;4.468;2023-03-23T11:58:52;20.20;99.90
22706;DHT22;11520;51.198;4.468;2023-03-23T12:09:43;19.00;99.90
22706;DHT22;11520;51.198;4.468;2023-03-23T12:25:41;18.80;99.90
22706;DHT22;11520;51.198;4.468;2023-03-23T12:40:24;18.40;99.90
22706;DHT22;11520;51.198;4.468;2023-03-23T12:51:55;17.50;99.90
22706;DHT22;11520;51.198;4.468;2023-03-23T12:54:50;17.40;99.90
22706;DHT22;11520;51.198;4.468;2023-03-23T13:03:23;17.70;99.90
22706;DHT22;11520;51.198;4.468;2023-03-23T13:06:12;17.80;99.90
22706;DHT22;11520;51.198;4.468;2023-03-23T13:21:02;17.40;99.90
22706;DHT22;11520;51.198;4.468;2023-03-23T13:23:45;17.40;99.90
22706;DHT22;11520;51.198;4.468;2023-03-23T13:26:18;17.40;99.90
22706;DHT22;11520;51.198;4.468;2023-03-23T13:29:18;17.20;99.90
22706;DHT22;11520;51.198;4.468;2023-03-23T13:31:45;17.20;99.90
22706;DHT22;11520;51.198;4.468;2023-03-23T13:34:28;16.70;99.90
22706;DHT22;11520;51.198;4.468;2023-03-23T13:37:23;16.40;99.90
22706;DHT22;11520;51.198;4.468;2023-03-23T13:39:51;16.20;99.90
22706;DHT22;11520;51.198;4.468;2023-03-23T13:42:24;16.00;99.90
22706;DHT22;11520;51.198;4.468;2023-03-23T13:55:41;16.30;99.90
22706;DHT22;11520;51.198;4.468;2023-03-23T14:00:35;16.70;99.90
22706;DHT22;11520;51.198;4.468;2023-03-23T14:03:01;16.70;99.90
22706;DHT22;11520;51.198;4.468;2023-03-23T14:05:35;16.50;99.90
22706;DHT22;11520;51.198;4.468;2023-03-23T14:13:23;16.50;99.90
22706;DHT22;11520;51.198;4.468;2023-03-23T14:15:58;16.50;99.90
22706;DHT22;11520;51.198;4.468;2023-03-23T14:18:37;16.20;99.90
22706;DHT22;11520;51.198;4.468;2023-03-23T14:21:13;15.90;99.90
22706;DHT22;11520;51.198;4.468;2023-03-23T14:23:40;15.50;99.90
22706;DHT22;11520;51.198;4.468;2023-03-23T14:26:11;15.30;99.90
22706;DHT22;11520;51.198;4.468;2023-03-23T14:28:41;15.00;99.90
22706;DHT22;11520;51.198;4.468;2023-03-23T14:31:27;14.70;99.90
22706;DHT22;11520;51.198;4.468;2023-03-23T14:33:55;14.60;99.90
22706;DHT22;11520;51.198;4.468;2023-03-23T14:36:27;14.50;99.90
22706;DHT22;11520;51.198;4.468;2023-03-23T14:39:17;14.60;99.90
22706;DHT22;11520;51.198;4.468;2023-03-23T14:41:45;14.90;99.90
22706;DHT22;11520;51.198;4.468;2023-03-23T14:44:15;15.20;99.90
22706;DHT22;11520;51.198;4.468;2023-03-23T14:46:43;15.40;99.90
22706;DHT22;11520;51.198;4.468;2023-03-23T14:49:13;15.40;99.90
22706;DHT22;11520;51.198;4.468;2023-03-23T14:51:51;15.30;99.90
22706;DHT22;11520;51.198;4.468;2023-03-23T14:54:27;15.20;99.90
22706;DHT22;11520;51.198;4.468;2023-03-23T14:56:54;15.30;99.90
22706;DHT22;11520;51.198;4.468;2023-03-23T14:59:21;15.40;99.90
22706;DHT22;11520;51.198;4.468;2023-03-23T15:01:48;15.40;99.90
22706;DHT22;11520;51.198;4.468;2023-03-23T15:04:21;15.50;99.90
22706;DHT22;11520;51.198;4.468;2023-03-23T15:07:00;15.50;99.90
22706;DHT22;11520;51.198;4.468;2023-03-23T15:09:27;15.50;99.90
22706;DHT22;11520;51.198;4.468;2023-03-23T15:12:01;15.50;99.90
22706;DHT22;11520;51.198;4.468;2023-03-23T15:14:33;15.70;99.90
22706;DHT22;11520;51.198;4.468;2023-03-23T15:17:03;15.70;99.90
22706;DHT22;11520;51.198;4.468;2023-03-23T15:19:40;15.80;99.90
22706;DHT22;11520;51.198;4.468;2023-03-23T15:22:19;15.70;99.90
22706;DHT22;11520;51.198;4.468;2023-03-23T15:24:46;15.60;99.90
22706;DHT22;11520;51.198;4.468;2023-03-23T15:27:26;15.70;99.90
22706;DHT22;11520;51.198;4.468;2023-03-23T15:29:57;15.60;99.90
22706;DHT22;11520;51.198;4.468;2023-03-23T15:32:37;15.60;99.90
22706;DHT22;11520;51.198;4.468;2023-03-23T15:35:20;15.70;99.90
22706;DHT22;11520;51.198;4.468;2023-03-23T15:37:51;15.80;99.90
22706;DHT22;11520;51.198;4.468;2023-03-23T15:40:21;15.90;99.90
22706;DHT22;11520;51.198;4.468;2023-03-23T15:42:48;16.00;99.90
22706;DHT22;11520;51.198;4.468;2023-03-23T15:52:53;15.90;99.90
22706;DHT22;11520;51.198;4.468;2023-03-23T15:55:28;15.90;99.90
22706;DHT22;11520;51.198;4.468;2023-03-23T15:57:56;15.90;99.90
22706;DHT22;11520;51.198;4.468;2023-03-23T16:00:26;15.80;99.90
22706;DHT22;11520;51.198;4.468;2023-03-23T16:03:04;15.90;99.90
22706;DHT22;11520;51.198;4.468;2023-03-23T16:05:30;15.80;99.90
22706;DHT22;11520;51.198;4.468;2023-03-23T16:07:56;15.80;99.90
22706;DHT22;11520;51.198;4.468;2023-03-23T16:10:23;15.70;99.90
22706;DHT22;11520;51.198;4.468;2023-03-23T16:12:51;15.70;99.90
22706;DHT22;11520;51.198;4.468;2023-03-23T16:15:18;15.70;99.90
22706;DHT22;11520;51.198;4.468;2023-03-23T16:17:44;15.70;99.90
22706;DHT22;11520;51.198;4.468;2023-03-23T16:20:17;15.70;99.90
22706;DHT22;11520;51.198;4.468;2023-03-23T16:22:44;15.70;99.90
22706;DHT22;11520;51.198;4.468;2023-03-23T16:25:14;15.60;99.90
22706;DHT22;11520;51.198;4.468;2023-03-23T16:27:42;15.50;99.90
22706;DHT22;11520;51.198;4.468;2023-03-23T16:30:16;15.30;99.90
22706;DHT22;11520;51.198;4.468;2023-03-23T16:32:42;15.10;99.90
22706;DHT22;11520;51.198;4.468;2023-03-23T16:35:10;15.00;99.90
22706;DHT22;11520;51.198;4.468;2023-03-23T16:37:36;14.90;99.90
22706;DHT22;11520;51.198;4.468;2023-03-23T16:40:03;14.70;99.90
22706;DHT22;11520;51.198;4.468;2023-03-23T16:42:30;14.70;99.90
22706;DHT22;11520;51.198;4.468;2023-03-23T16:44:58;14.80;99.90
22706;DHT22;11520;51.198;4.468;2023-03-23T16:47:26;14.80;99.90
22706;DHT22;11520;51.198;4.468;2023-03-23T16:49:51;14.80;99.90
22706;DHT22;11520;51.198;4.468;2023-03-23T16:52:19;14.90;99.90
22706;DHT22;11520;51.198;4.468;2023-03-23T16:54:45;14.90;99.90
22706;DHT22;11520;51.198;4.468;2023-03-23T16:57:11;14.90;99.90
22706;DHT22;11520;51.198;4.468;2023-03-23T16:59:36;14.90;99.90
22706;DHT22;11520;51.198;4.468;2023-03-23T17:02:02;14.90;99.90
22706;DHT22;11520;51.198;4.468;2023-03-23T17:04:29;14.90;99.90
22706;DHT22;11520;51.198;4.468;2023-03-23T17:06:55;14.80;99.90
22706;DHT22;11520;51.198;4.468;2023-03-23T17:09:24;14.80;99.90
22706;DHT22;11520;51.198;4.468;2023-03-23T17:11:51;14.80;99.90
22706;DHT22;11520;51.198;4.468;2023-03-23T17:14:16;14.80;99.90
22706;DHT22;11520;51.198;4.468;2023-03-23T17:16:42;14.80;99.90
22706;DHT22;11520;51.198;4.468;2023-03-23T17:19:08;14.80;99.90
22706;DHT22;11520;51.198;4.468;2023-03-23T17:21:34;14.70;99.90
22706;DHT22;11520;51.198;4.468;2023-03-23T17:24:00;14.80;99.90
22706;DHT22;11520;51.198;4.468;2023-03-23T17:26:26;14.70;99.90
22706;DHT22;11520;51.198;4.468;2023-03-23T17:28:52;14.70;99.90
22706;DHT22;11520;51.198;4.468;2023-03-23T17:31:18;14.60;99.90
22706;DHT22;11520;51.198;4.468;2023-03-23T17:33:44;14.70;99.90
22706;DHT22;11520;51.198;4.468;2023-03-23T17:36:09;14.70;99.90
22706;DHT22;11520;51.198;4.468;2023-03-23T17:38:36;14.60;99.90
22706;DHT22;11520;51.198;4.468;2023-03-23T17:41:02;14.60;99.90
22706;DHT22;11520;51.198;4.468;2023-03-23T17:43:30;14.60;99.90
22706;DHT22;11520;51.198;4.468;2023-03-23T17:45:56;14.70;99.90
22706;DHT22;11520;51.198;4.468;2023-03-23T17:48:23;14.60;99.90
22706;DHT22;11520;51.198;4.468;2023-03-23T17:50:53;14.70;99.90
22706;DHT22;11520;51.198;4.468;2023-03-23T17:53:19;14.70;99.90
22706;DHT22;11520;51.198;4.468;2023-03-23T17:55:45;14.70;99.90
22706;DHT22;11520;51.198;4.468;2023-03-23T17:58:13;14.70;99.90
22706;DHT22;11520;51.198;4.468;2023-03-23T18:00:38;14.70;99.90
22706;DHT22;11520;51.198;4.468;2023-03-23T18:03:04;14.70;99.90
22706;DHT22;11520;51.198;4.468;2023-03-23T18:05:34;14.70;99.90